Jackson County Reynolds Field
KJXN : now visible

Airfield :











YOU CAN JOIN US ON...

 
LOGIN :

Register | Disclaimer

   EN    FR    IT 

 









Legend :    VFR   Marginal VFR   IFR   Intensive IFR   Very Intensive IFR
Visi :
Ceiling :
>= 8 km
>= 3000ft
5 to 8 km
1000 to 3000 ft
1500m to 5 km
500 to 1000 ft
800 to 1500m
200 to 500 ft
< 800m
< 200 ft
Symbols :   Thunderstorms  Fog  Heavy snow  Heavy precipitations  Wind > 20 kt






- Airport Elevation : 1001 ft


KJXN - Jackson County Reynolds Field

CURRENT METAR :
  • 161856Z 10SM CLR 26/10 A3014 RMK AO2 SLP202 T02560100

EXPIRED METARs :
  • 161756Z 17007KT 140V210 10SM FEW055 26/10 A3016 RMK AO2 SLP209 T02560100 10261 20117 58009
  • 161656Z 12005KT 10SM CLR 24/10 A3016 RMK AO2 SLP213 T02440100

TAF KJXN
Valid from the 16 at 18:00 until the 17 at 18:00 UTC


161740Z 1618/1718 17007KT P6SM FEW050
FM170000 16006KT P6SM SKC
FM170600 16005KT 5SM BR SCT040
FM171200 19005KT P6SM SCT045
FM171400 21010G15KT P6SM BKN050
KZOB FIR / North America



MET'MAP, your aeronautical weather chart ! - Copyright ORBIFLY December 2007 - Disclaimer

ORBIFLY MET'MAP TEAM :

Programming & Development : Alexandra Zaïnal
Concept & original design : Baudouin d'Aumeries
Assistance for programming : Marc-Olivier Méhu
Technical & hardware support : Manuel Goepfert

Contact : metmap@orbifly.com




SOURCES & CREDITS :

   NOAA       Earth
Advisory